DRI Storm Peak Lab. Weather observations

Data are for 5 minute period ending at time listed.
 Day   Time    Ave.   Ave.  Ave.  Vector  Max.   Total    Baro.    Solar      Aerosol      Ave.  Ultrafine   Snow  
  of    of     Air    Rel.  Wind   Wind   Wind  Precip.   Pres.  Radiation   Aerosol      Ozone   Aerosol    Depth 
Year   Day     Temp.  Hum.  Speed  Dir.   Gust                               Ave.   Max.            Ave.           
2015   (MST)    F      %     mph   deg.    mph    in.      mb.     w/m2         #/cm3      ppbv    #/cm3      in.  
-------------------------------------------------------------------------------------------------------------------
  86    7:15   24.3    98    9.2   270    12.2   999.00    694.7      0.0    -1457       0   999.0        0     0.0
  86    7:20   24.3    98   10.5   268    14.3   999.00    694.7      0.0    -1457       0   999.0        0     0.0
  86    7:25   24.5    98    9.1   264    14.3   999.00    694.7      0.0    -1457       0   999.0        0     0.0
  86    7:30   24.5    98    9.4   258    13.2   999.00    694.7      0.0    -1457       0   999.0        0     0.0
  86    7:35   24.5    98    9.8   261    13.0   999.00    694.7      0.0    -1457       0   999.0        0     0.0
  86    7:40   24.5    98   10.9   254    16.7   999.00    694.7      0.0    -1457       0   999.0        0     0.0
  86    7:45   24.5    98   11.9   245    16.3   999.00    694.7      0.0    -1457       0   999.0        0     0.0
  86    7:50   24.6    98   12.1   247    16.9   999.00    694.8      0.0    -1457       0   999.0        0     0.0
  86    7:55   24.6    98   11.7   236    16.3   999.00    694.7      0.0    -1457       0   999.0        0     0.0
  86    8:00   24.7    98   12.2   245    16.5   999.00    694.8      0.0    -1457       0   999.0        0     0.0
  86    8:05   24.8    98   11.9   245    15.0   999.00    694.8      0.0    -1456       0   999.0        0     0.0
  86    8:10   24.9    98   11.1   244    18.4   999.00    694.8      0.0    -1456       0   999.0        0     0.0
  86    8:15   25.0    98   10.2   242    16.7   999.00    694.8      0.0    -1455       0   999.0        0     0.0
  86    8:20   25.0    98   10.2   250    13.7   999.00    694.9      0.0    -1456       0   999.0        0     0.0
  86    8:25   25.0    98    8.2   254    11.8   999.00    695.0      0.0    -1455       0   999.0        0     0.0
  86    8:30   25.0    98    9.0   250    13.7   999.00    695.0      0.0    -1455       0   999.0        0     0.0
  86    8:35   25.0    98    7.9   245    11.5   999.00    695.0      0.0    -1456       0   999.0        0     0.0
  86    8:40   25.2    98    7.0   253    10.6   999.00    695.1      0.0    -1455       0   999.0        0     0.0
  86    8:45   25.2    98    8.2   249    11.5   999.00    695.2      0.0    -1455       0   999.0        0     0.0
  86    8:50   25.2    98    7.9   246    10.2   999.00    695.2      0.0    -1454       0   999.0        0     0.0
  86    8:55   25.2    98    8.4   236    11.1   999.00    695.2      0.0    -1454       0   999.0        0     0.0
  86    9:00   25.3    98    8.6   240    12.6   999.00    695.2      0.0    -1454       0   999.0        0     0.0
  86    9:05   25.3    98    8.4   240    12.0   999.00    695.2      0.0    -1454       0   999.0        0     0.0
  86    9:10   25.4    98    9.1   241    13.7   999.00    695.3      0.0    -1453       0   999.0        0     0.0
  86    9:15   25.4    98    7.9   252    12.2   999.00    695.3      0.0    -1453       0   999.0        0     0.0
  86    9:20   25.5    98    8.3   258    14.3   999.00    695.4      0.0    -1453       0   999.0        0     0.0
  86    9:25   25.6    98    9.0   268    12.8   999.00    695.4      0.0    -1453       0   999.0        0     0.0
  86    9:30   25.8    98    8.7   276    13.3   999.00    695.4      0.0    -1453       0   999.0        0     0.0
  86    9:35   26.0    99    8.9   286    12.4   999.00    695.4      0.0    -1453       0   999.0        0     0.0
  86    9:40   26.5    99    9.0   289    12.2   999.00    695.3      0.0    -1453       0   999.0        0     0.0
  86    9:45   26.9    99    8.3   289    10.4   999.00    695.3      0.0    -1453       0   999.0        0     0.0
  86    9:50   27.3    99    8.0   299    10.9   999.00    695.3      0.0    -1453       0   999.0        0     0.0
  86    9:55   27.8    99    8.2   297    10.7   999.00    695.3      0.0    -1453       0   999.0        0     0.0
  86   10:00   28.3    99    7.7   286    11.5   999.00    695.4      0.0    -1453       0   999.0        0     0.0
  86   10:05   28.4    99    8.3   284    11.3   999.00    695.4      0.0    -1453       0   999.0        0     0.0
  86   10:10   28.7    99    6.7   292    10.0   999.00    695.3      0.0    -1453       0   999.0        0     0.0
  86   10:15   29.1   100    6.4   287     9.6   999.00    695.3      0.0    -1453       0   999.0        0     0.0
  86   10:20   29.2   100    7.3   268    10.2   999.00    695.3      0.0    -1453       0   999.0        0     0.0
  86   10:25   28.5    99    6.6   268    11.7   999.00    695.3      0.0    -1453       0   999.0        0     0.0
  86   10:30   28.1    99    8.8   267    13.2   999.00    695.3      0.0    -1452       0   999.0        0     0.0
  86   10:35   28.1    99    6.4   268    10.9   999.00    695.3      0.0    -1452       0   999.0        0     0.0
  86   10:40   28.3    99    8.2   279    10.0   999.00    695.2      0.0    -1452       0   999.0        0     0.0
  86   10:45   28.5    99    9.7   280    13.9   999.00    695.2      0.0    -1451       0   999.0        0     0.0
  86   10:50   28.9    99    8.1   283    12.4   999.00    695.2      0.0    -1451       0   999.0        0     0.0
  86   10:55   29.3    99   10.2   282    14.3   999.00    695.2      0.0    -1450       0   999.0        0     0.0
  86   11:00   29.1    99    8.8   286    14.6   999.00    695.2      0.0    -1450       0   999.0        0     0.0
  86   11:05   29.1   100    9.3   278    12.2   999.00    695.2      0.0    -1450       0   999.0        0     0.0
  86   11:10   29.3    99    8.7   285    11.7   999.00    695.2      0.0    -1449       0   999.0        0     0.0
  86   11:15   29.5   100    8.6   281    12.2   999.00    695.2      0.0    -1449       0   999.0        0     0.0
  86   11:20   29.6   100    6.5   289     9.1   999.00    695.2      0.0    -1448       0   999.0        0     0.0
  86   11:25   30.0   100    8.5   289    13.0   999.00    695.2      0.0    -1448       0   999.0        0     0.0
  86   11:30   30.0   100    6.0   286     9.4   999.00    695.2      0.0    -1448       0   999.0        0     0.0
  86   11:35   29.7   100    7.0   262    14.6   999.00    695.2      0.0    -1447       0   999.0        0     0.0
  86   11:40   28.9   100    6.8   281     9.6   999.00    695.1      0.0    -1447       0   999.0        0     0.0
  86   11:45   28.9   100    5.5   268     9.6   999.00    695.1      0.0    -1446       0   999.0        0     0.0
  86   11:50   29.1   100    6.8   281    11.3   999.00    695.1      0.0    -1446       0   999.0        0     0.0
  86   11:55   29.3   100    7.2   279    10.6   999.00    695.1      0.0    -1446       0   999.0        0     0.0
  86   12:00   29.3   100    9.6   282    13.7   999.00    695.0      0.0    -1446       0   999.0        0     0.0
  86   12:05   29.7   100    7.3   292    11.1   999.00    695.0      0.0    -1445       0   999.0        0     0.0
  86   12:10   30.4   100    8.0   291    10.9   999.00    695.0      0.0    -1445       0   999.0        0     0.0
  86   12:15   30.9   100    7.0   277    10.0   999.00    695.0      0.0    -1445       0   999.0        0     0.0
  86   12:20   30.8   100    6.8   294     9.4   999.00    695.0      0.0    -1444       0   999.0        0     0.0
  86   12:25   31.2   100    9.5   298    12.4   999.00    695.0      0.0    -1444       0   999.0        0     0.0
  86   12:30   31.3   100    7.9   298    10.9   999.00    694.9      0.0    -1443       0   999.0        0     0.0
  86   12:35   31.5   100    8.7   294    12.8   999.00    694.9      0.0    -1442       0   999.0        0     0.0
  86   12:40   31.5   100   12.3   274    18.0   999.00    694.9      0.0    -1442       0   999.0        0     0.0
  86   12:45   31.4   100   10.9   299    15.0   999.00    694.8      0.0    -1441       0   999.0        0     0.0
  86   12:50   31.5   100    9.6   298    12.2   999.00    694.9      0.0    -1441       0   999.0        0     0.0
  86   12:55   31.6   100    8.3   297    12.0   999.00    694.8      0.0    -1441       0   999.0        0     0.0
  86   13:00   31.5   100   12.3   302    16.5   999.00    694.7      0.0    -1440       0   999.0        0     0.0
  86   13:05   31.5   100   11.4   296    15.2   999.00    694.7      0.0    -1440       0   999.0        0     0.0
  86   13:10   31.6   100   11.0   299    13.7   999.00    694.7      0.0    -1440       0   999.0        0     0.0
  86   13:15   31.6   100    7.0   304    10.2   999.00    694.7      0.0    -1440       0   999.0        0     0.0
  86   13:20   31.6   100   11.2   287    15.0   999.00    694.7      0.0    -1440       0   999.0        0     0.0
  86   13:25   31.6   100    9.5   308    11.8   999.00    694.7      0.0    -1439       0   999.0        0     0.0
  86   13:30   31.6   100    8.0   301    13.0   999.00    694.7      0.0    -1439       0   999.0        0     0.0
  86   13:35   31.6   100   10.5   291    13.5   999.00    694.6      0.0    -1439       0   999.0        0     0.0
  86   13:40   31.6   100    9.5   305    14.1   999.00    694.6      0.0    -1439       0   999.0        0     0.0
  86   13:45   31.7    99   11.1   299    15.0   999.00    694.6      0.0    -1438       0   999.0        0     0.0
  86   13:50   31.7    99   10.8   301    13.5   999.00    694.6      0.0    -1438       0   999.0        0     0.0
  86   13:55   31.7    99    7.7   304    10.0   999.00    694.6      0.0    -1438       0   999.0        0     0.0
  86   14:00   31.7    99   10.4   286    14.4   999.00    694.6      0.0    -1438       0   999.0        0     0.0
  86   14:05   31.7    99    7.8   275    10.6   999.00    694.6      0.0    -1438       0   999.0        0     0.0
  86   14:10   31.7    99    7.1   270    10.2   999.00    694.5      0.0    -1437       0   999.0        0     0.0
  86   14:15   31.7    99    7.9   273    12.8   999.00    694.5      0.0    -1437       0   999.0        0     0.0
  86   14:20   31.7    99    9.8   285    14.3   999.00    694.4      0.0    -1436       0   999.0        0     0.0
  86   14:25   31.8    99    9.6   272    14.6   999.00    694.4      0.0    -1436       0   999.0        0     0.0
  86   14:30   31.7    99    9.4   270    13.9   999.00    694.3      0.0    -1435       0   999.0        0     0.0
  86   14:35   31.6    99    9.8   272    15.4   999.00    694.3      0.0    -1435       0   999.0        0     0.0
  86   14:40   31.7    99   10.4   290    13.9   999.00    694.3      0.0    -1435       0   999.0        0     0.0
  86   14:45   31.8    99    7.3   286    12.0   999.00    694.4      0.0    -1435       0   999.0        0     0.0
  86   14:50   31.8    99    6.4   270     8.9   999.00    694.4      0.0    -1434       0   999.0        0     0.0
  86   14:55   31.8    99    5.9   293    10.7   999.00    694.4      0.0    -1434       0   999.0        0     0.0
  86   15:00   31.9    99    8.0   276    10.9   999.00    694.4      0.0    -1433       0   999.0        0     0.0
  86   15:05   31.9    99    7.3   258    10.6   999.00    694.4      0.0    -1433       0   999.0        0     0.0
  86   15:10   31.8    99    9.3   261    17.4   999.00    694.4      0.0    -1432       0   999.0        0     0.0
  86   15:15   31.7    98   10.2   247    15.8   999.00    694.3      0.0    -1432       0   999.0        0     0.0
  86   15:20   31.6    99    8.6   269    13.7   999.00    694.3      0.0    -1431       0   999.0        0     0.0
  86   15:25   31.8    99    9.9   283    12.4   999.00    694.3      0.0    -1431       0   999.0        0     0.0
  86   15:30   31.8    98    9.5   267    15.8   999.00    694.3      0.0    -1431       0   999.0        0     0.0
  86   15:35   31.8    99   11.0   257    15.4   999.00    694.2      0.0    -1430       0   999.0        0     0.0
  86   15:40   31.9    98    8.7   275    14.1   999.00    694.2      0.0    -1430       0   999.0        0     0.0
  86   15:45   32.0    98    8.2   286    13.0   999.00    694.3      0.0    -1430       0   999.0        0     0.0
  86   15:50   32.0    98    7.9   276    13.5   999.00    694.2      0.0    -1429       0   999.0        0     0.0
  86   15:55   32.1    98    8.1   258    13.2   999.00    694.2      0.0    -1429       0   999.0        0     0.0
  86   16:00   32.2    97   10.5   276    15.4   999.00    694.1      0.0    -1429       0   999.0        0     0.0
  86   16:05   32.2    97    7.7   277    11.5   999.00    694.1      0.0    -1429       0   999.0        0     0.0
  86   16:10   32.3    97    5.5   297     8.7   999.00    694.1      0.0    -1429       0   999.0        0     0.0
  86   16:15   32.4    97    7.2   277    10.0   999.00    694.0      0.0    -1428       0   999.0        0     0.0
  86   16:20   32.5    96    6.7   277     9.8   999.00    694.1      0.0    -1428       0   999.0        0     0.0
  86   16:25   32.7    95    7.7   264    11.1   999.00    694.0      0.0    -1428       0   999.0        0     0.0
  86   16:30   32.9    92    9.4   266    14.8   999.00    694.0      0.0    -1428       0   999.0        0     0.0
  86   16:35   32.8    92    7.6   273    10.4   999.00    694.0      0.0    -1428       0   999.0        0     0.0
  86   16:40   33.2    89    7.8   254    13.2   999.00    694.0      0.0    -1427       0   999.0        0     0.0
  86   16:45   33.3    87    9.0   267    12.6   999.00    694.0      0.0    -1427       0   999.0        0     0.0
  86   16:50   33.5    84   10.4   242    16.5   999.00    694.0      0.0    -1427       0   999.0        0     0.0
  86   16:55   33.6    85    6.1   241     7.9   999.00    694.1      0.0    -1427       0   999.0        0     0.0
  86   17:00   33.6    85    6.8   232     9.2   999.00    694.0      0.0    -1427       0   999.0        0     0.0
  86   17:05   33.6    84    7.1   229     9.2   999.00    694.1      0.0    -1427       0   999.0        0     0.0
  86   17:10   33.5    84    7.5   226    10.0   999.00    694.1      0.0    -1427       0   999.0        0     0.0
  86   17:15   33.6    83    8.0   218    13.2   999.00    694.0      0.0    -1427       0   999.0        0     0.0
  86   17:20   33.5    83   11.0   223    13.3   999.00    694.0      0.0    -1427       0   999.0        0     0.0
  86   17:25   33.8    80    7.7   218    12.4   999.00    694.0      0.0    -1427       0   999.0        0     0.0
  86   17:30   34.0    79    8.0   220    11.1   999.00    694.0      0.0    -1427       0   999.0        0     0.0
  86   17:35   34.3    78    7.3   218    11.3   999.00    694.0      0.0    -1427       0   999.0        0     0.0
  86   17:40   34.1    78    9.4   230    12.6   999.00    694.0      0.0    -1427       0   999.0        0     0.0
  86   17:45   34.0    78   10.7   245    14.1   999.00    694.0      0.0    -1427       0   999.0        0     0.0
  86   17:50   34.2    77    9.1   244    12.4   999.00    694.0      0.0    -1427       0   999.0        0     0.0
  86   17:55   34.4    78    8.3   245    10.6   999.00    694.0      0.0    -1427       0   999.0        0     0.0
  86   18:00   34.5    80    8.9   250    11.3   999.00    694.0      0.0    -1427       0   999.0        0     0.0
  86   18:05   34.2    80    9.4   238    11.5   999.00    694.0      0.0    -1427       0   999.0        0     0.0
  86   18:10   34.2    80    9.7   231    11.7   999.00    694.0      0.0    -1427       0   999.0        0     0.0
  86   18:15   34.2    79   11.2   232    13.9   999.00    694.0      0.0    -1427       0   999.0        0     0.0
  86   18:20   34.4    77   10.8   227    14.6   999.00    694.0      0.0    -1427       0   999.0        0     0.0
  86   18:25   34.3    77   10.4   227    12.8   999.00    694.0      0.0    -1427       0   999.0        0     0.0
  86   18:30   34.4    76   11.9   234    14.4   999.00    694.0      0.0    -1427       0   999.0        0     0.0
  86   18:35   34.6    74   10.5   228    13.0   999.00    694.0      0.0    -1427       0   999.0        0     0.0
  86   18:40   34.7    74   11.1   225    13.3   999.00    694.0      0.0    -1427       0   999.0        0     0.0
  86   18:45   34.7    74   10.0   227    12.4   999.00    694.1      0.0    -1428       0   999.0        0     0.0
  86   18:50   34.7    73    8.6   220    11.8   999.00    694.1      0.0    -1428       0   999.0        0     0.0
  86   18:55   35.0    71   11.1   230    13.3   999.00    694.2      0.0    -1428       0   999.0        0     0.0
  86   19:00   35.0    71    8.8   234    11.7   999.00    694.2      0.0    -1429       0   999.0        0     0.0
  86   19:05   34.9    71    7.9   222    10.0   999.00    694.2      0.0    -1429       0   999.0        0     0.0
  86   19:10   35.0    71    5.3   211     8.7   999.00    694.3      0.0    -1429       0   999.0        0     0.0
  86   19:15   35.1    70    6.0   216     9.6   999.00    694.2      0.0    -1429       0   999.0        0     0.0
  86   19:20   35.2    68    9.0   226    10.9   999.00    694.3      0.0    -1430       0   999.0        0     0.0
  86   19:25   35.3    68    9.5   230    13.2   999.00    694.3      0.0    -1430       0   999.0        0     0.0
  86   19:30   35.7    66    9.8   230    12.6   999.00    694.3      0.0    -1430       0   999.0        0     0.0
  86   19:35   35.8    66    9.5   224    13.7   999.00    694.2      0.0    -1430       0   999.0        0     0.0
  86   19:40   36.0    65   10.2   223    14.6   999.00    694.3      0.0    -1431       0   999.0        0     0.0
  86   19:45   35.9    66    8.1   219    10.0   999.00    694.2      0.0    -1431       0   999.0        0     0.0
  86   19:50   35.8    66    9.8   250    15.6   999.00    694.3      0.0    -1432       0   999.0        0     0.0
  86   19:55   35.2    70    8.4   299    12.0   999.00    694.5      0.0    -1432       0   999.0        0     0.0
  86   20:00   34.1    76    5.3   341    11.1   999.00    694.6      0.0    -1433       0   999.0        0     0.0
  86   20:05   33.1    80    2.8   346     5.9   999.00    694.6      0.0    -1433       0   999.0        0     0.0
  86   20:10   34.1    72    4.0   261     5.9   999.00    694.5      0.0    -1434       0   999.0        0     0.0
  86   20:15   35.4    66    8.1   248    14.4   999.00    694.5      0.0    -1434       0   999.0        0     0.0
  86   20:20   35.5    66    9.2   275    15.4   999.00    694.5      0.0    -1434       0   999.0        0     0.0
  86   20:25   35.7    66    8.9   269    14.3   999.00    694.5      0.0    -1435       0   999.0        0     0.0
  86   20:30   35.4    67    7.9   268    11.8   999.00    694.5      0.0    -1435       0   999.0        0     0.0
  86   20:35   36.1    64   12.4   267    16.7   999.00    694.5      0.0    -1435       0   999.0        0     0.0
  86   20:40   35.7    66   10.3   276    14.4   999.00    694.5      0.0    -1436       0   999.0        0     0.0
  86   20:45   36.0    64   10.3   270    17.4   999.00    694.5      0.0    -1437       0   999.0        0     0.0
  86   20:50   36.3    62    9.5   262    15.2   999.00    694.5      0.0    -1437       0   999.0        0     0.0
  86   20:55   36.7    61    8.4   248    15.8   999.00    694.5      0.0    -1437       0   999.0        0     0.0
  86   21:00   36.4    61   11.3   239    16.1   999.00    694.5      0.0    -1438       0   999.0        0     0.0
  86   21:05   36.1    61   11.9   232    15.4   999.00    694.5      0.0    -1438       0   999.0        0     0.0
  86   21:10   36.6    60   10.6   236    14.3   999.00    694.5      0.0    -1438       0   999.0        0     0.0
  86   21:15   36.4    60   11.1   243    18.0   999.00    694.5      0.0    -1439       0   999.0        0     0.0
  86   21:20   36.3    60    8.6   244    11.8   999.00    694.6      0.0    -1439       0   999.0        0     0.0
  86   21:25   36.4    60   11.1   238    15.4   999.00    694.5      0.0    -1439       0   999.0        0     0.0
  86   21:30   36.6    59   11.0   254    14.6   999.00    694.5      0.0    -1439       0   999.0        0     0.0
  86   21:35   36.3    60   10.4   255    13.5   999.00    694.5      0.0    -1439       0   999.0        0     0.0
  86   21:40   36.1    61    9.3   262    12.8   999.00    694.6      0.0    -1440       0   999.0        0     0.0
  86   21:45   36.2    60   12.2   255    20.0   999.00    694.6      0.0    -1440       0   999.0        0     0.0
  86   21:50   36.6    58   12.2   249    19.7   999.00    694.6      0.0    -1441       0   999.0        0     0.0
  86   21:55   36.4    59   11.7   254    15.0   999.00    694.6      0.0    -1441       0   999.0        0     0.0
  86   22:00   36.2    59   10.0   257    16.7   999.00    694.6      0.0    -1441       0   999.0        0     0.0
  86   22:05   36.1    60    9.8   262    16.1   999.00    694.5      0.0    -1441       0   999.0        0     0.0
  86   22:10   36.0    60   11.8   258    16.9   999.00    694.5      0.0    -1442       0   999.0        0     0.0
  86   22:15   36.1    60   13.6   267    17.6   999.00    694.5      0.0    -1442       0   999.0        0     0.0
  86   22:20   35.7    62   10.6   276    14.8   999.00    694.6      0.0    -1442       0   999.0        0     0.0
  86   22:25   35.4    62   10.8   280    16.5   999.00    694.5      0.0    -1442       0   999.0        0     0.0
  86   22:30   35.3    63   11.8   284    17.4   999.00    694.5      0.0    -1442       0   999.0        0     0.0
  86   22:35   35.5    62   11.5   288    14.8   999.00    694.4      0.0    -1442       0   999.0        0     0.0
  86   22:40   35.4    63   11.5   285    15.6   999.00    694.4      0.0    -1443       0   999.0        0     0.0
  86   22:45   35.3    63   11.0   278    15.2   999.00    694.4      0.0    -1443       0   999.0        0     0.0
  86   22:50   35.2    63   10.8   277    16.7   999.00    694.4      0.0    -1443       0   999.0        0     0.0
  86   22:55   35.0    64   10.8   279    15.0   999.00    694.4      0.0    -1444       0   999.0        0     0.0
  86   23:00   34.9    64   11.7   278    16.9   999.00    694.4      0.0    -1444       0   999.0        0     0.0
  86   23:05   35.3    63   14.4   275    22.1   999.00    694.4      0.0    -1444       0   999.0        0     0.0
  86   23:10   35.6    62   12.9   282    18.2   999.00    694.3      0.0    -1444       0   999.0        0     0.0
  86   23:15   35.3    62   12.8   286    16.1   999.00    694.3      0.0    -1445       0   999.0        0     0.0
  86   23:20   35.2    62   12.2   289    15.4   999.00    694.3      0.0    -1445       0   999.0        0     0.0
  86   23:25   35.0    63   11.2   291    14.6   999.00    694.2      0.0    -1445       0   999.0        0     0.0
  86   23:30   34.7    64   10.6   282    16.1   999.00    694.2      0.0    -1445       0   999.0        0     0.0
  86   23:35   34.4    64   10.1   279    13.3   999.00    694.2      0.0    -1446       0   999.0        0     0.0
  86   23:40   34.3    64   10.4   274    13.0   999.00    694.3      0.0    -1446       0   999.0        0     0.0
  86   23:45   34.3    64   11.0   273    15.9   999.00    694.3      0.0    -1446       0   999.0        0     0.0
  86   23:50   34.4    64   11.0   273    14.4   999.00    694.3      0.0    -1446       0   999.0        0     0.0
  86   23:55   34.2    64   11.4   274    16.1   999.00    694.3      0.0    -1446       0   999.0        0     0.0
  87    0:00   34.2    64   11.1   274    14.8   999.00    694.2      0.0    -1446       0   999.0        0     0.0
  87    0:05   34.2    64   11.2   275    15.6   999.00    694.2      0.0    -1447       0   999.0        0     0.0
  87    0:10   34.1    64   10.6   276    14.3   999.00    694.2      0.0    -1447       0   999.0        0     0.0
  87    0:15   34.1    64    9.2   282    14.3   999.00    694.1      0.0    -1447       0   999.0        0     0.0
  87    0:20   33.9    65   10.4   280    15.4   999.00    694.1      0.0    -1447       0   999.0        0     0.0
  87    0:25   33.7    65    7.7   275    11.3   999.00    694.2      0.0    -1447       0   999.0        0     0.0
  87    0:30   33.6    65    8.6   274    11.7   999.00    694.2      0.0    -1447       0   999.0        0     0.0
  87    0:35   33.6    65    8.6   271    11.5   999.00    694.1      0.0    -1447       0   999.0        0     0.0
  87    0:40   33.8    64    9.4   272    13.2   999.00    694.0      0.0    -1447       0   999.0        0     0.0
  87    0:45   33.8    64    9.8   271    13.3   999.00    694.0      0.0    -1447       0   999.0        0     0.0
  87    0:50   33.9    64   11.7   268    14.1   999.00    694.0      0.0    -1447       0   999.0        0     0.0
  87    0:55   33.9    64   12.1   266    17.2   999.00    693.9      0.0    -1447       0   999.0        0     0.0
  87    1:00   34.1    63   11.2   263    15.8   999.00    693.9      0.0    -1448       0   999.0        0     0.0
  87    1:05   33.9    64   11.6   266    15.6   999.00    693.9      0.0    -1448       0   999.0        0     0.0
  87    1:10   33.8    64   11.9   270    16.7   999.00    693.9      0.0    -1448       0   999.0        0     0.0
  87    1:15   33.8    64   12.9   267    17.6   999.00    693.9      0.0    -1448       0   999.0        0     0.0
  87    1:20   33.6    65   11.4   270    14.3   999.00    693.9      0.0    -1448       0   999.0        0     0.0
  87    1:25   33.5    65   11.8   267    14.8   999.00    693.8      0.0    -1448       0   999.0        0     0.0
  87    1:30   33.5    65   11.3   266    15.0   999.00    693.8      0.0    -1448       0   999.0        0     0.0
  87    1:35   33.4    65   13.1   265    16.1   999.00    693.7      0.0    -1448       0   999.0        0     0.0
  87    1:40   33.3    65   14.7   264    21.1   999.00    693.7      0.0    -1448       0   999.0        0     0.0
  87    1:45   33.7    64   15.3   270    22.8   999.00    693.6      0.0    -1448       0   999.0        0     0.0
  87    1:50   33.5    65   12.8   276    16.5   999.00    693.6      0.0    -1448       0   999.0        0     0.0
  87    1:55   33.0    66   11.8   279    15.9   999.00    693.6      0.0    -1448       0   999.0        0     0.0
  87    2:00   32.9    66   14.0   274    18.7   999.00    693.5      0.0    -1448       0   999.0        0     0.0
  87    2:05   33.0    66   13.0   280    18.0   999.00    693.5      0.0    -1448       0   999.0        0     0.0
  87    2:10   32.7    67   12.7   278    18.0   999.00    693.5      0.0    -1449       0   999.0        0     0.0
  87    2:15   32.6    67   12.3   281    15.9   999.00    693.5      0.0    -1449       0   999.0        0     0.0
  87    2:20   32.6    67   11.5   279    14.4   999.00    693.4      0.0    -1449       0   999.0        0     0.0
  87    2:25   32.6    67   12.5   277    16.9   999.00    693.4      0.0    -1449       0   999.0        0     0.0
  87    2:30   32.6    67   11.8   273    16.3   999.00    693.4      0.0    -1449       0   999.0        0     0.0
  87    2:35   32.5    66   13.2   276    16.9   999.00    693.3      0.0    -1449       0   999.0        0     0.0
  87    2:40   32.8    66   13.8   270    17.1   999.00    693.3      0.0    -1450       0   999.0        0     0.0
  87    2:45   32.9    66   14.2   268    18.4   999.00    693.3      0.0    -1450       0   999.0        0     0.0
  87    2:50   32.9    66   13.1   273    17.4   999.00    693.3      0.0    -1450       0   999.0        0     0.0
  87    2:55   32.8    66   12.8   271    15.9   999.00    693.3      0.0    -1450       0   999.0        0     0.0
  87    3:00   32.9    66   12.3   272    16.1   999.00    693.2      0.0    -1450       0   999.0        0     0.0
  87    3:05   32.9    66   12.8   273    16.5   999.00    693.2      0.0    -1450       0   999.0        0     0.0
  87    3:10   33.0    65   12.3   271    16.7   999.00    693.2      0.0    -1450       0   999.0        0     0.0
  87    3:15   32.7    66   12.4   273    15.9   999.00    693.2      0.0    -1450       0   999.0        0     0.0
  87    3:20   32.8    66   12.7   271    15.9   999.00    693.2      0.0    -1450       0   999.0        0     0.0
  87    3:25   32.8    66   13.2   266    16.1   999.00    693.2      0.0    -1451       0   999.0        0     0.0
  87    3:30   33.0    66   13.9   265    17.1   999.00    693.2      0.0    -1451       0   999.0        0     0.0
  87    3:35   32.9    66   12.3   259    15.8   999.00    693.2      0.0    -1451       0   999.0        0     0.0
  87    3:40   32.9    65   12.1   261    15.9   999.00    693.2      0.0    -1451       0   999.0        0     0.0
  87    3:45   33.0    65   12.9   261    17.2   999.00    693.2      0.0    -1451       0   999.0        0     0.0
  87    3:50   33.1    64   13.1   258    16.9   999.00    693.2      0.0    -1451       0   999.0        0     0.0
  87    3:55   32.9    64   12.7   261    16.3   999.00    693.2      0.0    -1451       0   999.0        0     0.0
  87    4:00   33.1    64   14.1   260    18.0   999.00    693.2      0.0    -1451       0   999.0        0     0.0
  87    4:05   33.1    64   14.1   258    17.1   999.00    693.2      0.0    -1451       0   999.0        0     0.0
  87    4:10   33.0    64   14.1   257    17.8   999.00    693.2      0.0    -1451       0   999.0        0     0.0
  87    4:15   33.1    64   14.8   255    18.4   999.00    693.3      0.0    -1451       0   999.0        0     0.0
  87    4:20   33.1    64   14.0   261    17.2   999.00    693.3      0.0    -1451       0   999.0        0     0.0
  87    4:25   33.0    64   14.4   257    20.2   999.00    693.3      0.0    -1451       0   999.0        0     0.0
  87    4:30   33.0    64   15.2   256    19.7   999.00    693.3      0.0    -1451       0   999.0        0     0.0
  87    4:35   33.1    63   14.9   258    19.7   999.00    693.3      0.0    -1452       0   999.0        0     0.0
  87    4:40   33.1    63   13.3   262    18.0   999.00    693.3      0.0    -1451       0   999.0        0     0.0
  87    4:45   33.1    63   13.4   268    18.0   999.00    693.3      0.0    -1452       0   999.0        0     0.0
  87    4:50   33.0    63   13.4   268    16.3   999.00    693.3      0.0    -1451       0   999.0        0     0.0
  87    4:55   33.1    63   13.5   267    16.7   999.00    693.3      0.0    -1451       0   999.0        0     0.0
  87    5:00   32.9    64   12.8   269    15.8   999.00    693.3      0.0    -1452       0   999.0        0     0.0
  87    5:05   32.7    64   11.9   265    15.6   999.00    693.4      0.0    -1452       0   999.0        0     0.0
  87    5:10   32.8    64   11.8   265    14.4   999.00    693.4      0.0    -1452       0   999.0        0     0.0
  87    5:15   32.8    64   11.2   264    13.9   999.00    693.4      0.0    -1454       0   999.0        0     0.0
  87    5:20   32.7    64   11.6   260    15.2   999.00    693.4      0.0    -1454       0   999.0        0     0.0
  87    5:25   33.0    63   12.6   256    15.6   999.00    693.4      0.0    -1453       0   999.0        0     0.0
  87    5:30   33.2    63   14.7   254    18.5   999.00    693.4      0.0    -1454       0   999.0        0     0.0
  87    5:35   33.1    63   13.2   256    17.2   999.00    693.4      0.0    -1454       0   999.0        0     0.0
  87    5:40   33.0    63   13.4   256    16.5   999.00    693.4      0.0    -1454       0   999.0        0     0.0
  87    5:45   33.0    63   12.9   251    17.1   999.00    693.4      0.0    -1454       0   999.0        0     0.0
  87    5:50   33.0    63   13.1   253    16.1   999.00    693.5      0.0    -1454       0   999.0        0     0.0
  87    5:55   33.2    62   14.1   250    17.2   999.00    693.5      0.0    -1454       0   999.0        0     0.0
  87    6:00   33.2    62   13.4   251    17.2   999.00    693.5      0.0    -1454       0   999.0        0     0.0
  87    6:05   33.2    62   14.3   250    17.6   999.00    693.5      0.0    -1453       0   999.0        0     0.0
  87    6:10   33.3    62   13.9   253    18.0   999.00    693.5      0.0    -1453       0   999.0        0     0.0
  87    6:15   33.3    62   12.6   256    15.4   999.00    693.5      0.0    -1453       0   999.0        0     0.0
  87    6:20   33.1    62   12.7   248    15.6   999.00    693.5      0.0    -1453       0   999.0        0     0.0
  87    6:25   33.1    62   14.1   244    17.2   999.00    693.6      0.0    -1454       0   999.0        0     0.0
  87    6:30   33.2    61   15.5   244    18.2   999.00    693.5      0.0    -1453       0   999.0        0     0.0
  87    6:35   33.2    61   16.0   241    18.0   999.00    693.5      0.0    -1453       0   999.0        0     0.0
  87    6:40   33.4    61   15.7   239    18.0   999.00    693.6      0.0    -1452       0   999.0        0     0.0
  87    6:45   33.3    61   15.1   240    16.9   999.00    693.6      0.0    -1453       0   999.0        0     0.0
  87    6:50   33.3    61   15.3   237    17.2   999.00    693.6      0.0    -1453       0   999.0        0     0.0
  87    6:55   33.1    62   14.3   235    15.8   999.00    693.6      0.0    -1452       0   999.0        0     0.0
  87    7:00   33.2    61   14.4   234    16.9   999.00    693.6      0.0    -1452       0   999.0        0     0.0
  87    7:05   33.5    59   14.4   234    16.9   999.00    693.6      0.0    -1452       0   999.0        0     0.0
  87    7:10   33.5    58   15.1   233    16.7   999.00    693.7      0.0    -1452       0   999.0        0     0.0

Return to DRI Storm Peak Lab. graphs page.


Western Regional Climate Center,wrcc@dri.edu